sensor_id;sensor_type;location;lat;lon;timestamp;P1;durP1;ratioP1;P2;durP2;ratioP2
8060;SDS011;4073;42.626;25.386;2022-07-06T00:00:25;9.73;;;4.20;;
8060;SDS011;4073;42.626;25.386;2022-07-06T00:02:50;5.80;;;4.63;;
8060;SDS011;4073;42.626;25.386;2022-07-06T00:05:16;5.23;;;4.67;;
8060;SDS011;4073;42.626;25.386;2022-07-06T00:07:41;7.87;;;4.80;;
8060;SDS011;4073;42.626;25.386;2022-07-06T00:10:07;7.80;;;4.73;;
8060;SDS011;4073;42.626;25.386;2022-07-06T00:12:33;7.80;;;4.80;;
8060;SDS011;4073;42.626;25.386;2022-07-06T00:14:58;6.83;;;5.10;;
8060;SDS011;4073;42.626;25.386;2022-07-06T00:17:24;7.53;;;5.43;;
8060;SDS011;4073;42.626;25.386;2022-07-06T00:19:49;6.53;;;4.97;;
8060;SDS011;4073;42.626;25.386;2022-07-06T00:22:15;6.97;;;5.13;;
8060;SDS011;4073;42.626;25.386;2022-07-06T00:24:40;5.03;;;4.57;;
8060;SDS011;4073;42.626;25.386;2022-07-06T00:27:05;6.90;;;4.83;;
8060;SDS011;4073;42.626;25.386;2022-07-06T00:29:31;5.10;;;4.43;;
8060;SDS011;4073;42.626;25.386;2022-07-06T00:31:57;7.03;;;5.03;;
8060;SDS011;4073;42.626;25.386;2022-07-06T00:34:23;5.90;;;4.63;;
8060;SDS011;4073;42.626;25.386;2022-07-06T00:36:48;5.67;;;5.17;;
8060;SDS011;4073;42.626;25.386;2022-07-06T00:39:13;5.30;;;4.80;;
8060;SDS011;4073;42.626;25.386;2022-07-06T00:41:39;7.27;;;4.80;;
8060;SDS011;4073;42.626;25.386;2022-07-06T00:44:06;5.23;;;4.80;;
8060;SDS011;4073;42.626;25.386;2022-07-06T00:46:34;7.03;;;4.53;;
8060;SDS011;4073;42.626;25.386;2022-07-06T00:48:59;4.57;;;4.13;;
8060;SDS011;4073;42.626;25.386;2022-07-06T00:51:26;5.77;;;5.20;;
8060;SDS011;4073;42.626;25.386;2022-07-06T00:53:58;6.23;;;5.63;;
8060;SDS011;4073;42.626;25.386;2022-07-06T00:56:25;6.83;;;5.97;;
8060;SDS011;4073;42.626;25.386;2022-07-06T00:58:53;6.97;;;6.27;;
8060;SDS011;4073;42.626;25.386;2022-07-06T01:01:19;7.23;;;6.53;;
8060;SDS011;4073;42.626;25.386;2022-07-06T01:03:44;7.30;;;5.67;;
8060;SDS011;4073;42.626;25.386;2022-07-06T01:06:10;7.80;;;5.83;;
8060;SDS011;4073;42.626;25.386;2022-07-06T01:08:36;6.60;;;6.00;;
8060;SDS011;4073;42.626;25.386;2022-07-06T01:11:02;9.87;;;6.27;;
8060;SDS011;4073;42.626;25.386;2022-07-06T01:13:28;7.43;;;6.70;;
8060;SDS011;4073;42.626;25.386;2022-07-06T01:15:57;8.33;;;6.20;;
8060;SDS011;4073;42.626;25.386;2022-07-06T01:18:23;9.07;;;7.10;;
8060;SDS011;4073;42.626;25.386;2022-07-06T01:20:49;8.87;;;6.90;;
8060;SDS011;4073;42.626;25.386;2022-07-06T01:23:15;7.70;;;6.90;;
8060;SDS011;4073;42.626;25.386;2022-07-06T01:25:40;6.93;;;6.23;;
8060;SDS011;4073;42.626;25.386;2022-07-06T01:28:05;9.83;;;7.33;;
8060;SDS011;4073;42.626;25.386;2022-07-06T01:30:31;9.10;;;7.07;;
8060;SDS011;4073;42.626;25.386;2022-07-06T01:32:56;8.00;;;6.70;;
8060;SDS011;4073;42.626;25.386;2022-07-06T01:35:22;8.77;;;6.87;;
8060;SDS011;4073;42.626;25.386;2022-07-06T01:37:50;11.17;;;6.80;;
8060;SDS011;4073;42.626;25.386;2022-07-06T01:40:15;11.77;;;6.73;;
8060;SDS011;4073;42.626;25.386;2022-07-06T01:42:41;7.87;;;6.70;;
8060;SDS011;4073;42.626;25.386;2022-07-06T01:45:07;9.23;;;7.03;;
8060;SDS011;4073;42.626;25.386;2022-07-06T01:47:33;7.70;;;6.23;;
8060;SDS011;4073;42.626;25.386;2022-07-06T01:49:59;9.57;;;6.20;;
8060;SDS011;4073;42.626;25.386;2022-07-06T01:52:26;7.93;;;6.30;;
8060;SDS011;4073;42.626;25.386;2022-07-06T01:54:52;7.67;;;6.77;;
8060;SDS011;4073;42.626;25.386;2022-07-06T01:57:19;7.13;;;6.23;;
8060;SDS011;4073;42.626;25.386;2022-07-06T01:59:44;8.17;;;6.03;;
8060;SDS011;4073;42.626;25.386;2022-07-06T02:02:10;8.47;;;6.47;;
8060;SDS011;4073;42.626;25.386;2022-07-06T02:04:36;12.47;;;6.83;;
8060;SDS011;4073;42.626;25.386;2022-07-06T02:07:01;7.93;;;7.10;;
8060;SDS011;4073;42.626;25.386;2022-07-06T02:09:27;10.00;;;7.40;;
8060;SDS011;4073;42.626;25.386;2022-07-06T02:11:52;10.93;;;7.63;;
8060;SDS011;4073;42.626;25.386;2022-07-06T02:14:18;8.30;;;7.50;;
8060;SDS011;4073;42.626;25.386;2022-07-06T02:16:43;10.17;;;7.70;;
8060;SDS011;4073;42.626;25.386;2022-07-06T02:19:08;8.33;;;7.53;;
8060;SDS011;4073;42.626;25.386;2022-07-06T02:21:34;8.53;;;6.70;;
8060;SDS011;4073;42.626;25.386;2022-07-06T02:23:59;6.77;;;5.77;;
8060;SDS011;4073;42.626;25.386;2022-07-06T02:26:25;8.43;;;6.40;;
8060;SDS011;4073;42.626;25.386;2022-07-06T02:28:51;6.57;;;5.97;;
8060;SDS011;4073;42.626;25.386;2022-07-06T02:31:16;7.83;;;5.90;;
8060;SDS011;4073;42.626;25.386;2022-07-06T02:33:42;7.67;;;6.87;;
8060;SDS011;4073;42.626;25.386;2022-07-06T02:36:07;6.83;;;6.13;;
8060;SDS011;4073;42.626;25.386;2022-07-06T02:38:33;7.97;;;6.40;;
8060;SDS011;4073;42.626;25.386;2022-07-06T02:40:59;8.10;;;6.40;;
8060;SDS011;4073;42.626;25.386;2022-07-06T02:43:24;8.13;;;6.13;;
8060;SDS011;4073;42.626;25.386;2022-07-06T02:45:50;9.67;;;6.20;;
8060;SDS011;4073;42.626;25.386;2022-07-06T02:48:15;9.83;;;6.20;;
8060;SDS011;4073;42.626;25.386;2022-07-06T02:50:41;6.90;;;6.23;;
8060;SDS011;4073;42.626;25.386;2022-07-06T02:53:06;12.80;;;6.87;;
8060;SDS011;4073;42.626;25.386;2022-07-06T02:55:32;7.40;;;6.70;;
8060;SDS011;4073;42.626;25.386;2022-07-06T02:57:57;8.83;;;6.43;;
8060;SDS011;4073;42.626;25.386;2022-07-06T03:00:23;8.33;;;6.80;;
8060;SDS011;4073;42.626;25.386;2022-07-06T03:02:48;7.60;;;6.60;;
8060;SDS011;4073;42.626;25.386;2022-07-06T03:05:14;9.67;;;6.90;;
8060;SDS011;4073;42.626;25.386;2022-07-06T03:07:39;8.37;;;6.67;;
8060;SDS011;4073;42.626;25.386;2022-07-06T03:10:04;7.77;;;6.10;;
8060;SDS011;4073;42.626;25.386;2022-07-06T03:12:31;7.37;;;6.53;;
8060;SDS011;4073;42.626;25.386;2022-07-06T03:14:56;9.10;;;6.57;;
8060;SDS011;4073;42.626;25.386;2022-07-06T03:17:21;8.03;;;6.27;;
8060;SDS011;4073;42.626;25.386;2022-07-06T03:19:47;7.33;;;6.27;;
8060;SDS011;4073;42.626;25.386;2022-07-06T03:22:12;7.60;;;6.77;;
8060;SDS011;4073;42.626;25.386;2022-07-06T03:24:38;9.73;;;7.50;;
8060;SDS011;4073;42.626;25.386;2022-07-06T03:27:03;6.63;;;5.90;;
8060;SDS011;4073;42.626;25.386;2022-07-06T03:29:29;7.57;;;5.10;;
8060;SDS011;4073;42.626;25.386;2022-07-06T03:31:55;5.87;;;5.30;;
8060;SDS011;4073;42.626;25.386;2022-07-06T03:34:20;8.50;;;5.13;;
8060;SDS011;4073;42.626;25.386;2022-07-06T03:36:45;7.00;;;6.27;;
8060;SDS011;4073;42.626;25.386;2022-07-06T03:39:11;10.13;;;7.47;;
8060;SDS011;4073;42.626;25.386;2022-07-06T03:41:36;7.10;;;6.40;;
8060;SDS011;4073;42.626;25.386;2022-07-06T03:44:02;9.40;;;7.50;;
8060;SDS011;4073;42.626;25.386;2022-07-06T03:46:27;7.87;;;6.93;;
8060;SDS011;4073;42.626;25.386;2022-07-06T03:48:54;11.23;;;8.03;;
8060;SDS011;4073;42.626;25.386;2022-07-06T03:51:19;11.00;;;7.77;;
8060;SDS011;4073;42.626;25.386;2022-07-06T03:53:45;11.47;;;7.77;;
8060;SDS011;4073;42.626;25.386;2022-07-06T03:56:10;9.23;;;7.80;;
8060;SDS011;4073;42.626;25.386;2022-07-06T03:58:55;10.27;;;7.57;;
8060;SDS011;4073;42.626;25.386;2022-07-06T04:01:22;13.77;;;7.90;;
8060;SDS011;4073;42.626;25.386;2022-07-06T04:03:47;7.63;;;6.93;;
8060;SDS011;4073;42.626;25.386;2022-07-06T04:06:13;8.17;;;5.73;;
8060;SDS011;4073;42.626;25.386;2022-07-06T04:08:39;8.20;;;5.70;;
8060;SDS011;4073;42.626;25.386;2022-07-06T04:11:04;11.03;;;5.90;;
8060;SDS011;4073;42.626;25.386;2022-07-06T04:13:30;13.40;;;7.47;;
8060;SDS011;4073;42.626;25.386;2022-07-06T04:15:55;12.50;;;7.77;;
8060;SDS011;4073;42.626;25.386;2022-07-06T04:18:21;6.40;;;5.47;;
8060;SDS011;4073;42.626;25.386;2022-07-06T04:20:46;6.97;;;4.47;;
8060;SDS011;4073;42.626;25.386;2022-07-06T04:23:12;6.93;;;4.90;;
8060;SDS011;4073;42.626;25.386;2022-07-06T04:25:37;5.80;;;5.03;;
8060;SDS011;4073;42.626;25.386;2022-07-06T04:28:02;10.13;;;4.97;;
8060;SDS011;4073;42.626;25.386;2022-07-06T04:30:28;14.97;;;5.00;;
8060;SDS011;4073;42.626;25.386;2022-07-06T04:32:54;6.13;;;4.80;;
8060;SDS011;4073;42.626;25.386;2022-07-06T04:35:20;5.40;;;4.90;;
8060;SDS011;4073;42.626;25.386;2022-07-06T04:37:46;7.73;;;4.80;;
8060;SDS011;4073;42.626;25.386;2022-07-06T04:40:11;7.17;;;4.60;;
8060;SDS011;4073;42.626;25.386;2022-07-06T04:42:37;6.03;;;5.27;;
8060;SDS011;4073;42.626;25.386;2022-07-06T04:45:03;7.77;;;4.90;;
8060;SDS011;4073;42.626;25.386;2022-07-06T04:47:29;6.30;;;5.17;;
8060;SDS011;4073;42.626;25.386;2022-07-06T04:49:55;5.33;;;4.83;;
8060;SDS011;4073;42.626;25.386;2022-07-06T04:52:20;7.33;;;4.90;;
8060;SDS011;4073;42.626;25.386;2022-07-06T04:54:46;11.60;;;5.90;;
8060;SDS011;4073;42.626;25.386;2022-07-06T04:57:11;6.77;;;5.23;;
8060;SDS011;4073;42.626;25.386;2022-07-06T04:59:37;7.17;;;5.63;;
8060;SDS011;4073;42.626;25.386;2022-07-06T05:02:02;9.20;;;6.37;;
8060;SDS011;4073;42.626;25.386;2022-07-06T05:04:28;8.17;;;5.70;;
8060;SDS011;4073;42.626;25.386;2022-07-06T05:06:53;9.07;;;5.30;;
8060;SDS011;4073;42.626;25.386;2022-07-06T05:09:19;10.43;;;6.00;;
8060;SDS011;4073;42.626;25.386;2022-07-06T05:11:44;13.37;;;6.20;;
8060;SDS011;4073;42.626;25.386;2022-07-06T05:14:10;7.77;;;5.40;;
8060;SDS011;4073;42.626;25.386;2022-07-06T05:16:35;7.17;;;5.20;;
8060;SDS011;4073;42.626;25.386;2022-07-06T05:19:01;9.63;;;5.37;;
8060;SDS011;4073;42.626;25.386;2022-07-06T05:21:26;10.10;;;5.63;;
8060;SDS011;4073;42.626;25.386;2022-07-06T05:23:51;8.90;;;6.70;;
8060;SDS011;4073;42.626;25.386;2022-07-06T05:26:17;9.07;;;6.00;;
8060;SDS011;4073;42.626;25.386;2022-07-06T05:28:42;6.97;;;5.90;;
8060;SDS011;4073;42.626;25.386;2022-07-06T05:31:08;7.33;;;6.53;;
8060;SDS011;4073;42.626;25.386;2022-07-06T05:33:34;10.60;;;6.40;;
8060;SDS011;4073;42.626;25.386;2022-07-06T05:36:00;9.43;;;6.37;;
8060;SDS011;4073;42.626;25.386;2022-07-06T05:38:25;10.37;;;6.63;;
8060;SDS011;4073;42.626;25.386;2022-07-06T05:40:51;7.23;;;5.67;;
8060;SDS011;4073;42.626;25.386;2022-07-06T05:43:16;11.87;;;7.40;;
8060;SDS011;4073;42.626;25.386;2022-07-06T05:45:42;8.57;;;5.93;;
8060;SDS011;4073;42.626;25.386;2022-07-06T05:48:08;6.73;;;5.63;;
8060;SDS011;4073;42.626;25.386;2022-07-06T05:50:52;6.47;;;5.67;;
8060;SDS011;4073;42.626;25.386;2022-07-06T05:53:18;7.30;;;6.47;;
8060;SDS011;4073;42.626;25.386;2022-07-06T05:55:44;7.53;;;5.87;;
8060;SDS011;4073;42.626;25.386;2022-07-06T05:58:09;7.37;;;6.53;;
8060;SDS011;4073;42.626;25.386;2022-07-06T06:00:35;6.97;;;6.20;;
8060;SDS011;4073;42.626;25.386;2022-07-06T06:03:00;7.37;;;5.83;;
8060;SDS011;4073;42.626;25.386;2022-07-06T06:05:26;7.57;;;6.20;;
8060;SDS011;4073;42.626;25.386;2022-07-06T06:07:51;6.13;;;5.60;;
8060;SDS011;4073;42.626;25.386;2022-07-06T06:10:18;6.90;;;6.20;;
8060;SDS011;4073;42.626;25.386;2022-07-06T06:12:44;6.80;;;5.90;;
8060;SDS011;4073;42.626;25.386;2022-07-06T06:15:10;7.33;;;6.53;;
8060;SDS011;4073;42.626;25.386;2022-07-06T06:17:37;7.40;;;6.60;;
8060;SDS011;4073;42.626;25.386;2022-07-06T06:20:04;7.57;;;6.87;;
8060;SDS011;4073;42.626;25.386;2022-07-06T06:22:31;10.57;;;7.03;;
8060;SDS011;4073;42.626;25.386;2022-07-06T06:25:08;8.13;;;7.33;;
8060;SDS011;4073;42.626;25.386;2022-07-06T06:27:34;7.40;;;6.80;;
8060;SDS011;4073;42.626;25.386;2022-07-06T06:29:59;8.93;;;6.97;;
8060;SDS011;4073;42.626;25.386;2022-07-06T06:32:24;7.73;;;6.87;;
8060;SDS011;4073;42.626;25.386;2022-07-06T06:34:50;7.80;;;7.07;;
8060;SDS011;4073;42.626;25.386;2022-07-06T06:37:15;8.53;;;7.27;;
8060;SDS011;4073;42.626;25.386;2022-07-06T06:39:41;8.33;;;7.50;;
8060;SDS011;4073;42.626;25.386;2022-07-06T06:42:06;8.43;;;7.07;;
8060;SDS011;4073;42.626;25.386;2022-07-06T06:44:32;9.80;;;7.53;;
8060;SDS011;4073;42.626;25.386;2022-07-06T06:46:57;7.67;;;6.97;;
8060;SDS011;4073;42.626;25.386;2022-07-06T06:49:23;10.17;;;8.20;;
8060;SDS011;4073;42.626;25.386;2022-07-06T06:51:48;8.23;;;7.50;;
8060;SDS011;4073;42.626;25.386;2022-07-06T06:54:14;10.70;;;8.07;;
8060;SDS011;4073;42.626;25.386;2022-07-06T06:56:39;9.50;;;8.33;;
8060;SDS011;4073;42.626;25.386;2022-07-06T06:59:04;9.67;;;8.67;;
8060;SDS011;4073;42.626;25.386;2022-07-06T07:01:30;8.27;;;7.57;;
8060;SDS011;4073;42.626;25.386;2022-07-06T07:03:57;7.83;;;7.23;;
8060;SDS011;4073;42.626;25.386;2022-07-06T07:06:23;8.03;;;7.33;;
8060;SDS011;4073;42.626;25.386;2022-07-06T07:08:48;8.70;;;7.90;;
8060;SDS011;4073;42.626;25.386;2022-07-06T07:11:14;9.10;;;8.20;;
8060;SDS011;4073;42.626;25.386;2022-07-06T07:13:39;9.27;;;8.37;;
8060;SDS011;4073;42.626;25.386;2022-07-06T07:16:05;9.30;;;8.37;;
8060;SDS011;4073;42.626;25.386;2022-07-06T07:18:30;9.17;;;8.20;;
8060;SDS011;4073;42.626;25.386;2022-07-06T07:20:56;9.63;;;8.73;;
8060;SDS011;4073;42.626;25.386;2022-07-06T07:23:21;9.73;;;8.83;;
8060;SDS011;4073;42.626;25.386;2022-07-06T07:25:47;9.50;;;8.60;;
8060;SDS011;4073;42.626;25.386;2022-07-06T07:28:12;10.07;;;8.27;;
8060;SDS011;4073;42.626;25.386;2022-07-06T07:30:37;9.97;;;9.07;;
8060;SDS011;4073;42.626;25.386;2022-07-06T07:33:03;10.00;;;8.97;;
8060;SDS011;4073;42.626;25.386;2022-07-06T07:35:28;9.23;;;8.33;;
8060;SDS011;4073;42.626;25.386;2022-07-06T07:37:54;9.33;;;8.47;;
8060;SDS011;4073;42.626;25.386;2022-07-06T07:40:19;10.07;;;8.60;;
8060;SDS011;4073;42.626;25.386;2022-07-06T07:42:45;10.00;;;8.30;;
8060;SDS011;4073;42.626;25.386;2022-07-06T07:45:11;9.73;;;8.83;;
8060;SDS011;4073;42.626;25.386;2022-07-06T07:47:37;11.50;;;8.50;;
8060;SDS011;4073;42.626;25.386;2022-07-06T07:50:03;11.07;;;9.93;;
8060;SDS011;4073;42.626;25.386;2022-07-06T07:52:29;13.97;;;10.73;;
8060;SDS011;4073;42.626;25.386;2022-07-06T07:54:54;11.17;;;9.57;;
8060;SDS011;4073;42.626;25.386;2022-07-06T07:57:20;12.40;;;10.07;;
8060;SDS011;4073;42.626;25.386;2022-07-06T07:59:45;12.43;;;9.93;;
8060;SDS011;4073;42.626;25.386;2022-07-06T08:02:11;12.60;;;11.07;;
8060;SDS011;4073;42.626;25.386;2022-07-06T08:04:36;14.23;;;11.73;;
8060;SDS011;4073;42.626;25.386;2022-07-06T08:07:01;12.50;;;11.43;;
8060;SDS011;4073;42.626;25.386;2022-07-06T08:09:27;12.43;;;11.23;;
8060;SDS011;4073;42.626;25.386;2022-07-06T08:11:52;12.67;;;11.57;;
8060;SDS011;4073;42.626;25.386;2022-07-06T08:14:18;11.97;;;10.50;;
8060;SDS011;4073;42.626;25.386;2022-07-06T08:16:43;13.50;;;10.30;;
8060;SDS011;4073;42.626;25.386;2022-07-06T08:19:09;11.00;;;9.93;;
8060;SDS011;4073;42.626;25.386;2022-07-06T08:21:38;11.83;;;10.70;;
8060;SDS011;4073;42.626;25.386;2022-07-06T08:24:05;11.03;;;10.10;;
8060;SDS011;4073;42.626;25.386;2022-07-06T08:26:30;11.87;;;10.73;;
8060;SDS011;4073;42.626;25.386;2022-07-06T08:28:56;11.47;;;10.30;;
8060;SDS011;4073;42.626;25.386;2022-07-06T08:31:21;13.63;;;10.20;;
8060;SDS011;4073;42.626;25.386;2022-07-06T08:33:47;10.23;;;8.67;;
8060;SDS011;4073;42.626;25.386;2022-07-06T08:36:13;9.43;;;8.50;;
8060;SDS011;4073;42.626;25.386;2022-07-06T08:38:39;12.43;;;9.67;;
8060;SDS011;4073;42.626;25.386;2022-07-06T08:41:05;11.83;;;9.33;;
8060;SDS011;4073;42.626;25.386;2022-07-06T08:43:32;9.00;;;8.10;;
8060;SDS011;4073;42.626;25.386;2022-07-06T08:45:59;10.77;;;9.03;;
8060;SDS011;4073;42.626;25.386;2022-07-06T08:48:26;10.93;;;8.63;;
8060;SDS011;4073;42.626;25.386;2022-07-06T08:50:55;11.13;;;8.77;;
8060;SDS011;4073;42.626;25.386;2022-07-06T08:53:21;10.33;;;9.33;;
8060;SDS011;4073;42.626;25.386;2022-07-06T08:55:47;14.97;;;9.60;;
8060;SDS011;4073;42.626;25.386;2022-07-06T08:58:15;9.40;;;8.40;;
8060;SDS011;4073;42.626;25.386;2022-07-06T09:00:41;8.80;;;8.00;;
8060;SDS011;4073;42.626;25.386;2022-07-06T09:03:07;9.10;;;8.20;;
8060;SDS011;4073;42.626;25.386;2022-07-06T09:05:35;9.20;;;8.30;;
8060;SDS011;4073;42.626;25.386;2022-07-06T09:08:01;9.90;;;8.67;;
8060;SDS011;4073;42.626;25.386;2022-07-06T09:10:27;10.53;;;9.53;;
8060;SDS011;4073;42.626;25.386;2022-07-06T09:12:53;10.07;;;9.13;;
8060;SDS011;4073;42.626;25.386;2022-07-06T09:15:27;9.47;;;8.57;;
8060;SDS011;4073;42.626;25.386;2022-07-06T09:17:55;9.07;;;8.17;;
8060;SDS011;4073;42.626;25.386;2022-07-06T09:20:22;8.67;;;7.17;;
8060;SDS011;4073;42.626;25.386;2022-07-06T09:22:47;10.00;;;7.63;;
8060;SDS011;4073;42.626;25.386;2022-07-06T09:25:14;8.90;;;8.10;;
8060;SDS011;4073;42.626;25.386;2022-07-06T09:27:41;8.53;;;7.77;;
8060;SDS011;4073;42.626;25.386;2022-07-06T09:30:07;8.10;;;7.30;;
8060;SDS011;4073;42.626;25.386;2022-07-06T09:32:42;9.20;;;7.57;;
8060;SDS011;4073;42.626;25.386;2022-07-06T09:35:19;8.73;;;7.43;;
8060;SDS011;4073;42.626;25.386;2022-07-06T09:37:45;8.30;;;7.60;;
8060;SDS011;4073;42.626;25.386;2022-07-06T09:40:16;9.07;;;8.10;;
8060;SDS011;4073;42.626;25.386;2022-07-06T09:42:43;8.80;;;8.00;;
8060;SDS011;4073;42.626;25.386;2022-07-06T09:45:08;9.30;;;8.40;;
8060;SDS011;4073;42.626;25.386;2022-07-06T09:47:34;11.57;;;8.20;;
8060;SDS011;4073;42.626;25.386;2022-07-06T09:50:01;8.27;;;7.47;;
8060;SDS011;4073;42.626;25.386;2022-07-06T09:52:26;8.43;;;7.50;;
8060;SDS011;4073;42.626;25.386;2022-07-06T09:54:52;8.73;;;7.90;;
8060;SDS011;4073;42.626;25.386;2022-07-06T09:57:17;9.00;;;6.97;;
8060;SDS011;4073;42.626;25.386;2022-07-06T09:59:43;9.23;;;7.00;;
8060;SDS011;4073;42.626;25.386;2022-07-06T10:02:16;8.07;;;6.17;;
8060;SDS011;4073;42.626;25.386;2022-07-06T10:04:44;6.93;;;5.90;;
8060;SDS011;4073;42.626;25.386;2022-07-06T10:07:10;7.40;;;6.67;;
8060;SDS011;4073;42.626;25.386;2022-07-06T10:09:37;7.87;;;6.20;;
8060;SDS011;4073;42.626;25.386;2022-07-06T10:12:03;6.73;;;6.13;;
8060;SDS011;4073;42.626;25.386;2022-07-06T10:14:33;7.07;;;6.37;;
8060;SDS011;4073;42.626;25.386;2022-07-06T10:17:00;7.00;;;6.27;;
8060;SDS011;4073;42.626;25.386;2022-07-06T10:19:27;8.07;;;7.37;;
8060;SDS011;4073;42.626;25.386;2022-07-06T10:21:53;7.43;;;6.73;;
8060;SDS011;4073;42.626;25.386;2022-07-06T10:24:19;11.03;;;7.40;;
8060;SDS011;4073;42.626;25.386;2022-07-06T10:26:46;15.87;;;8.00;;
8060;SDS011;4073;42.626;25.386;2022-07-06T10:29:13;7.40;;;6.70;;
8060;SDS011;4073;42.626;25.386;2022-07-06T10:31:48;8.73;;;7.83;;
8060;SDS011;4073;42.626;25.386;2022-07-06T10:34:17;10.90;;;7.23;;
8060;SDS011;4073;42.626;25.386;2022-07-06T10:36:47;10.57;;;6.63;;
8060;SDS011;4073;42.626;25.386;2022-07-06T10:39:16;9.60;;;7.00;;
8060;SDS011;4073;42.626;25.386;2022-07-06T10:45:13;7.33;;;6.03;;
8060;SDS011;4073;42.626;25.386;2022-07-06T10:47:40;7.87;;;6.77;;
8060;SDS011;4073;42.626;25.386;2022-07-06T10:50:07;9.60;;;7.17;;
8060;SDS011;4073;42.626;25.386;2022-07-06T10:52:48;7.60;;;6.63;;
8060;SDS011;4073;42.626;25.386;2022-07-06T10:55:36;7.80;;;6.70;;
8060;SDS011;4073;42.626;25.386;2022-07-06T10:58:03;6.83;;;6.13;;
8060;SDS011;4073;42.626;25.386;2022-07-06T11:08:44;7.93;;;6.90;;
8060;SDS011;4073;42.626;25.386;2022-07-06T11:14:01;8.67;;;7.70;;
8060;SDS011;4073;42.626;25.386;2022-07-06T11:16:30;8.40;;;6.40;;
8060;SDS011;4073;42.626;25.386;2022-07-06T11:19:25;7.00;;;6.40;;
8060;SDS011;4073;42.626;25.386;2022-07-06T11:21:58;7.50;;;6.50;;
8060;SDS011;4073;42.626;25.386;2022-07-06T11:24:32;8.37;;;6.53;;
8060;SDS011;4073;42.626;25.386;2022-07-06T11:26:59;7.30;;;6.60;;
8060;SDS011;4073;42.626;25.386;2022-07-06T11:29:26;7.40;;;6.13;;
8060;SDS011;4073;42.626;25.386;2022-07-06T11:31:53;6.93;;;6.33;;
8060;SDS011;4073;42.626;25.386;2022-07-06T11:34:24;8.70;;;6.40;;
8060;SDS011;4073;42.626;25.386;2022-07-06T11:36:55;8.00;;;6.03;;
8060;SDS011;4073;42.626;25.386;2022-07-06T11:39:22;7.53;;;6.83;;
8060;SDS011;4073;42.626;25.386;2022-07-06T11:41:51;6.67;;;6.07;;
8060;SDS011;4073;42.626;25.386;2022-07-06T11:44:16;6.93;;;6.23;;
8060;SDS011;4073;42.626;25.386;2022-07-06T11:46:42;7.50;;;6.80;;
8060;SDS011;4073;42.626;25.386;2022-07-06T11:49:08;9.37;;;6.67;;
8060;SDS011;4073;42.626;25.386;2022-07-06T11:51:35;6.50;;;5.90;;
8060;SDS011;4073;42.626;25.386;2022-07-06T11:54:07;9.20;;;6.40;;
8060;SDS011;4073;42.626;25.386;2022-07-06T11:56:37;6.50;;;5.90;;
8060;SDS011;4073;42.626;25.386;2022-07-06T11:59:10;7.67;;;6.23;;
8060;SDS011;4073;42.626;25.386;2022-07-06T12:01:35;6.77;;;5.73;;
8060;SDS011;4073;42.626;25.386;2022-07-06T12:04:06;7.03;;;5.60;;
8060;SDS011;4073;42.626;25.386;2022-07-06T12:06:32;6.87;;;5.50;;
8060;SDS011;4073;42.626;25.386;2022-07-06T12:08:58;6.57;;;5.30;;
8060;SDS011;4073;42.626;25.386;2022-07-06T12:11:29;6.30;;;5.77;;
8060;SDS011;4073;42.626;25.386;2022-07-06T12:13:57;6.40;;;5.30;;
8060;SDS011;4073;42.626;25.386;2022-07-06T12:16:34;6.20;;;5.60;;
8060;SDS011;4073;42.626;25.386;2022-07-06T12:19:04;6.30;;;5.77;;
8060;SDS011;4073;42.626;25.386;2022-07-06T12:21:30;6.80;;;5.23;;
8060;SDS011;4073;42.626;25.386;2022-07-06T12:23:56;7.03;;;5.23;;
8060;SDS011;4073;42.626;25.386;2022-07-06T12:26:23;5.93;;;5.30;;
8060;SDS011;4073;42.626;25.386;2022-07-06T12:31:50;6.37;;;5.60;;
8060;SDS011;4073;42.626;25.386;2022-07-06T12:34:21;5.87;;;5.30;;
8060;SDS011;4073;42.626;25.386;2022-07-06T12:36:51;9.10;;;6.53;;
8060;SDS011;4073;42.626;25.386;2022-07-06T12:39:22;6.20;;;5.60;;
8060;SDS011;4073;42.626;25.386;2022-07-06T12:44:15;8.17;;;5.57;;
8060;SDS011;4073;42.626;25.386;2022-07-06T12:46:42;5.80;;;5.23;;
8060;SDS011;4073;42.626;25.386;2022-07-06T12:49:12;6.97;;;5.50;;
8060;SDS011;4073;42.626;25.386;2022-07-06T12:51:53;9.07;;;5.80;;
8060;SDS011;4073;42.626;25.386;2022-07-06T12:54:20;8.97;;;6.80;;
8060;SDS011;4073;42.626;25.386;2022-07-06T12:59:31;8.37;;;7.00;;
8060;SDS011;4073;42.626;25.386;2022-07-06T13:01:59;9.53;;;6.77;;
8060;SDS011;4073;42.626;25.386;2022-07-06T13:04:26;6.10;;;5.60;;
8060;SDS011;4073;42.626;25.386;2022-07-06T13:06:53;7.57;;;6.80;;
8060;SDS011;4073;42.626;25.386;2022-07-06T13:09:19;8.03;;;6.13;;
8060;SDS011;4073;42.626;25.386;2022-07-06T13:11:46;9.07;;;7.67;;
8060;SDS011;4073;42.626;25.386;2022-07-06T13:14:16;9.90;;;7.50;;
8060;SDS011;4073;42.626;25.386;2022-07-06T13:16:43;8.33;;;7.37;;
8060;SDS011;4073;42.626;25.386;2022-07-06T13:19:10;7.60;;;6.90;;
8060;SDS011;4073;42.626;25.386;2022-07-06T13:21:36;9.90;;;7.33;;
8060;SDS011;4073;42.626;25.386;2022-07-06T13:24:02;9.10;;;7.60;;
8060;SDS011;4073;42.626;25.386;2022-07-06T13:26:28;7.97;;;7.27;;
8060;SDS011;4073;42.626;25.386;2022-07-06T13:28:54;7.93;;;7.13;;
8060;SDS011;4073;42.626;25.386;2022-07-06T13:31:20;7.57;;;6.83;;
8060;SDS011;4073;42.626;25.386;2022-07-06T13:33:45;7.30;;;6.70;;
8060;SDS011;4073;42.626;25.386;2022-07-06T13:36:11;7.20;;;6.60;;
8060;SDS011;4073;42.626;25.386;2022-07-06T13:38:36;8.57;;;7.03;;
8060;SDS011;4073;42.626;25.386;2022-07-06T13:41:01;7.70;;;6.80;;
8060;SDS011;4073;42.626;25.386;2022-07-06T13:43:27;7.83;;;6.93;;
8060;SDS011;4073;42.626;25.386;2022-07-06T13:46:05;7.43;;;6.77;;
8060;SDS011;4073;42.626;25.386;2022-07-06T13:48:31;7.80;;;7.10;;
8060;SDS011;4073;42.626;25.386;2022-07-06T13:50:58;7.57;;;6.77;;
8060;SDS011;4073;42.626;25.386;2022-07-06T13:53:23;18.60;;;15.03;;
8060;SDS011;4073;42.626;25.386;2022-07-06T13:55:49;10.10;;;8.00;;
8060;SDS011;4073;42.626;25.386;2022-07-06T13:58:14;12.93;;;8.20;;
8060;SDS011;4073;42.626;25.386;2022-07-06T14:00:40;8.60;;;7.70;;
8060;SDS011;4073;42.626;25.386;2022-07-06T14:03:06;9.10;;;7.50;;
8060;SDS011;4073;42.626;25.386;2022-07-06T14:05:33;10.97;;;8.00;;
8060;SDS011;4073;42.626;25.386;2022-07-06T14:07:59;9.60;;;7.87;;
8060;SDS011;4073;42.626;25.386;2022-07-06T14:10:24;9.70;;;7.57;;
8060;SDS011;4073;42.626;25.386;2022-07-06T14:12:50;9.23;;;8.33;;
8060;SDS011;4073;42.626;25.386;2022-07-06T14:15:15;8.80;;;8.00;;
8060;SDS011;4073;42.626;25.386;2022-07-06T14:17:40;10.53;;;8.20;;
8060;SDS011;4073;42.626;25.386;2022-07-06T14:20:06;8.83;;;7.97;;
8060;SDS011;4073;42.626;25.386;2022-07-06T14:22:32;9.60;;;7.73;;
8060;SDS011;4073;42.626;25.386;2022-07-06T14:24:58;8.83;;;7.70;;
8060;SDS011;4073;42.626;25.386;2022-07-06T14:27:24;8.80;;;7.93;;
8060;SDS011;4073;42.626;25.386;2022-07-06T14:29:49;10.30;;;8.33;;
8060;SDS011;4073;42.626;25.386;2022-07-06T14:32:15;8.37;;;7.67;;
8060;SDS011;4073;42.626;25.386;2022-07-06T14:34:40;8.73;;;8.03;;
8060;SDS011;4073;42.626;25.386;2022-07-06T14:37:06;11.27;;;9.97;;
8060;SDS011;4073;42.626;25.386;2022-07-06T14:39:31;10.47;;;8.43;;
8060;SDS011;4073;42.626;25.386;2022-07-06T14:41:57;9.60;;;8.60;;
8060;SDS011;4073;42.626;25.386;2022-07-06T14:44:22;11.77;;;8.80;;
8060;SDS011;4073;42.626;25.386;2022-07-06T14:46:48;9.50;;;8.70;;
8060;SDS011;4073;42.626;25.386;2022-07-06T14:49:13;11.30;;;8.87;;
8060;SDS011;4073;42.626;25.386;2022-07-06T14:51:38;11.67;;;10.40;;
8060;SDS011;4073;42.626;25.386;2022-07-06T14:54:04;11.90;;;9.67;;
8060;SDS011;4073;42.626;25.386;2022-07-06T14:56:29;10.23;;;9.23;;
8060;SDS011;4073;42.626;25.386;2022-07-06T14:58:55;9.93;;;8.93;;
8060;SDS011;4073;42.626;25.386;2022-07-06T15:01:20;9.30;;;8.33;;
8060;SDS011;4073;42.626;25.386;2022-07-06T15:03:46;11.90;;;8.83;;
8060;SDS011;4073;42.626;25.386;2022-07-06T15:06:11;10.47;;;8.53;;
8060;SDS011;4073;42.626;25.386;2022-07-06T15:08:36;8.87;;;7.97;;
8060;SDS011;4073;42.626;25.386;2022-07-06T15:11:02;8.23;;;7.47;;
8060;SDS011;4073;42.626;25.386;2022-07-06T15:13:27;9.03;;;7.20;;
8060;SDS011;4073;42.626;25.386;2022-07-06T15:15:53;10.20;;;6.93;;